Hickman, California
Current Conditions -  °F | °C
As of 3:53 AM on Saturday 20 Dec 2014 (Local Time) from KMOD Reporting Station
Light Rain Light Rain  
Wind Chill: 53°   Ceiling: 3200
Heat Index: 53°   Visibility: 4mi
Dew Point: 51°   Wind: 7mph
Humidity: 93%   Direction: 110°ESE
Pressure: 30.14"   Gusts: NA
Location:  37.62°N, 120.75°W
Report Text: KMOD 201153Z AUTO 11006KT 4SM -RA BR FEW026 OVC032 12/11 A3014 RMK AO2 RAB43 SLP206 P0001 60015 70031 T01170106 10122 20117 58004
Loading
Personal Weather Stations






























Interactive Weather Map New forecast layout! Learn more

10-Day Weather Forecast

Advertisements
Track Severe Weather on mobile